Picayune, MS

09:05 CDT le 26 juillet 2016 (GMT -0500)
Hide_A_Way Lake ~OWX | | Change Station

Alt. 100 ft 30.58 °N, 89.65 °W | Updated 6 seconds ago

Pluie
Pluie
76.5 ° F
Paraît 77 ° F
N
0.0
Vent Variable Vent de ENE
Gusts 1.0 mph

Aujourd'hui
Haut(e) -- | Bas -- ° F
--% Risque de précip.
Hier
Haut(e) -- | Bas -- ° F
Precip. -- pouce
Pression 29.94 pouce
Visibilité 10.0 Miles terrestres
Nuages Nuageux 7000 ft
Couvert 8500 ft
indice de chaleur 77 ° F
Point de rosée 74 ° F
Humidité 93%
Précipitations 0.38 pouce
Profondeur de la couche neigeuse Non disponible.
6:13 AM 7:56 PM
Lune gibbeuse décroissante, 54% visible
SPECI KASD 261402Z AUTO 05005KT 10SM BKN070 OVC085 26/24 A2994 RMK AO2 LTG DSNT E-S RAE1354 P0000 T02610244
Pression 29.94 pouce
Visibilité 10.0 Miles terrestres
Nuages Nuageux 7000 ft
Couvert 8500 ft
indice de chaleur 77 ° F
Point de rosée 74 ° F
Humidité 93%
Précipitations 0.38 pouce
Profondeur de la couche neigeuse Non disponible.
6:13 AM 7:56 PM
Lune gibbeuse décroissante, 54% visible
SPECI KASD 261402Z AUTO 05005KT 10SM BKN070 OVC085 26/24 A2994 RMK AO2 LTG DSNT E-S RAE1354 P0000 T02610244

10-Day Weather Forecast

Almanac

Astronomie

Jul. 26, 2016 Lever Coucher
Temps réel
Crépuscule civil
Crépuscule nautique
Crépuscule astronomique
Lune
Durée de lumière visible
Longueur du jour
Tomorrow will be .
, % of the Moon is Illuminated

Extrêmes aujourd'hui

State Highs State Lows

Community

WunderPhotos

Upload Photos

1,927,588 Photos téléchargées !

WunderBlog® & News

Nearby

Qualité de l'air

  Qualité de l'air Indice de la qualité de l'air Polluant
Not available.

Épaisseur de neige

Station Depth Altitude

Activité sismique

Ville Distance Mag. Time & Date
Minimum magnitude displayed is 2.5.

Températures des eaux côtières

Lieu Température

Stations

Stations météo à proximité

Emplacement de la station Température Refroidissement éolien Point de rosée Humidité Vent Precip. Alt. Mise à jour Type
                   

Watches & Warnings

There are currently no watches in effect.